OPMET informācija

Laikapstākļu informācija aviācijai uz 24.10.2020 15:48 UTC


TAF Rīga (FTLV31)


TAF EVRA 241401Z 2415/2515 22007KT 9999 BKN020 TEMPO 2415/2418
3000 SHRA BKN010CB TEMPO 2418/2421 SCT013CB TEMPO
2501/2507 0600 FG BKN002=

TAF Liepāja (FTLV32)


TAF EVLA 241403Z 2415/2515 24010KT 9999 BKN015 TEMPO 2415/2417
26017G30KT BKN009 SCT020CB TEMPO 2421/2507 0700
FG BECMG 2509/2511 18007KT=

METAR Rīga (SALV31)


METAR EVRA 241520Z 18007KT CAVOK 11/09 Q1006 R18/290195 NOSIG=

METAR Ventspils un Liepāja (SALV32)


METAR EVVA 241520Z AUTO 24012KT 9999 FEW007 SCT013 BKN023 12/12
Q1004=
METAR EVLA 241520Z AUTO 26014KT 9999 BKN010/// BKN019/// 12/11 Q1006=

GAMET Rīga (FALV51)


EVRR GAMET VALID 241500/242100 EVRA-
EVRR RIGA FIR BLW FL100
SECN I
SIG SFC VIS:15/18 FOR AREA 2, 17/21 AREA 3 LCA 3000M RA BR
SIG CLD:
15/18 FOR AREAS 2, E OF 1, 17/21 3 ISOL EMBD CB 1500/ABV 10000FT AGL
15/18 FOR AREAS 1 2 AND 17/21 3 LCA BKN 500/10000FT AGL
ICE:MOD INC ABV 5000-6000FT AMSL
TURB:15/17 FOR AREAS S, W OF 1 MOD BLW 3000FT AGL
SIGMET APPLICABLE:NIL
SECN II
PSYS:15 COLD FRONT FRON N TO SW OVER W PART OF RIGA FIR MOV E 15KT NC
SFC WIND:
FOR AREAS 2,3, E OF 1 AND 15/17 S, W OF 1 230/09-14KT
12/17 FOR AREA S,W OF 1 LCA GUSTS 30KT
17/21 FOR AREAS S, W OF 1 270/07-12KT
WIND/T:
1000FT 210/25KT PS08
2000FT 230/30KT PS07
5000FT 260/40KT PS02
10000FT 260/35KT MS06
SFC VIS:10KM
CLD:
15/18 FOR AREAS 2, E OF 1, 17/21 3 BKN/OVC LYR 1500/ABV 10000FT AGL
FOR AREAS S,W OF 1,18/21 2 AND 15/17 3 BKN SC AC 2000/9000FT AGL
FZLVL:FOR AREAS S 1 2 5500-6000FT AMSL
FOR AREAS 3 5000FT AMSL
MNM QNH
15/18 1002HPA FOR S 1, 1003HPA FOR 2
1004HPA FOR 3
18/21 1003HPA FOR S 2, 1004HPA FOR 1 3
SEA:T13 HGT 1.0M
OTLK:242100/242400 NOT PREPARED=